createdAt,value
2018-06-24T00:01:39.657Z,58.56
2018-06-24T00:04:08.121Z,58.93
2018-06-24T00:06:36.455Z,58.81
2018-06-24T00:09:07.017Z,59.13
2018-06-24T00:11:35.392Z,58.17
2018-06-24T00:14:03.982Z,59.35
2018-06-24T00:16:32.374Z,58.35
2018-06-24T00:19:00.854Z,57.89
2018-06-24T00:21:29.425Z,58.06
2018-06-24T00:23:57.938Z,57.95
2018-06-24T00:26:26.287Z,57.83
2018-06-24T00:28:54.882Z,57.42
2018-06-24T00:31:23.565Z,57.09
2018-06-24T00:33:51.936Z,57.70
2018-06-24T00:36:20.430Z,57.91
2018-06-24T00:38:51.832Z,57.66
2018-06-24T00:41:20.250Z,58.11
2018-06-24T00:43:48.563Z,57.67
2018-06-24T00:46:17.171Z,57.53
2018-06-24T00:48:45.801Z,58.05
2018-06-24T00:51:14.350Z,58.06
2018-06-24T00:53:42.869Z,57.64
2018-06-24T00:56:11.242Z,57.52
2018-06-24T00:58:39.517Z,58.06
2018-06-24T01:01:08.012Z,58.20
2018-06-24T01:03:36.348Z,58.29
2018-06-24T01:06:04.862Z,57.83
2018-06-24T01:08:33.169Z,56.84
2018-06-24T01:11:01.525Z,56.74
2018-06-24T01:13:29.942Z,56.65
2018-06-24T01:15:58.534Z,56.97
2018-06-24T01:18:27.070Z,56.51
2018-06-24T01:20:55.345Z,56.87
2018-06-24T01:23:23.854Z,56.81
2018-06-24T01:25:52.232Z,57.65
2018-06-24T01:28:20.808Z,58.55
2018-06-24T01:30:49.414Z,58.56
2018-06-24T01:33:17.749Z,57.29
2018-06-24T01:35:46.232Z,56.77
2018-06-24T01:38:14.723Z,55.58
2018-06-24T01:40:43.232Z,55.48
2018-06-24T01:43:11.469Z,55.20
2018-06-24T01:45:39.641Z,56.03
2018-06-24T01:48:07.918Z,55.94
2018-06-24T01:50:37.321Z,55.50
2018-06-24T01:53:05.696Z,55.86
2018-06-24T01:55:34.103Z,54.70
2018-06-24T01:58:02.550Z,54.15
2018-06-24T02:00:31.046Z,53.90
2018-06-24T02:02:59.308Z,53.62
2018-06-24T02:05:27.801Z,52.82
2018-06-24T02:07:56.207Z,52.16
2018-06-24T02:10:24.809Z,51.64
2018-06-24T02:12:53.127Z,50.85
2018-06-24T02:15:21.530Z,51.24
2018-06-24T02:17:49.914Z,51.76
2018-06-24T02:20:18.444Z,52.10
2018-06-24T02:22:47.020Z,51.91
2018-06-24T02:25:15.225Z,51.12
2018-06-24T02:27:46.584Z,51.11
2018-06-24T02:30:14.894Z,50.69
2018-06-24T02:32:43.445Z,51.51
2018-06-24T02:35:12.009Z,52.72
2018-06-24T02:37:40.507Z,52.96
2018-06-24T02:40:09.005Z,53.68
2018-06-24T02:42:37.379Z,54.34
2018-06-24T02:45:06.078Z,53.74
2018-06-24T02:47:34.456Z,53.98
2018-06-24T02:50:02.932Z,53.92
2018-06-24T02:52:31.289Z,54.10
2018-06-24T02:54:59.923Z,54.84
2018-06-24T02:57:28.263Z,54.61
2018-06-24T02:59:57.364Z,55.73
2018-06-24T03:02:25.779Z,55.11
2018-06-24T03:04:54.149Z,54.53
2018-06-24T03:07:22.704Z,53.34
2018-06-24T03:09:51.093Z,53.82
2018-06-24T03:12:19.495Z,54.51
2018-06-24T03:14:47.770Z,54.31
2018-06-24T03:17:16.326Z,54.53
2018-06-24T03:19:44.958Z,54.68
2018-06-24T03:22:14.063Z,53.88
2018-06-24T03:24:42.501Z,53.03
2018-06-24T03:27:11.080Z,52.40
2018-06-24T03:29:39.350Z,50.94
2018-06-24T03:32:07.934Z,51.39
2018-06-24T03:34:36.205Z,51.70
2018-06-24T03:37:04.386Z,52.39
2018-06-24T03:39:32.648Z,49.96
2018-06-24T03:42:01.143Z,51.77
2018-06-24T03:44:29.628Z,51.81
2018-06-24T03:46:58.001Z,52.37
2018-06-24T03:49:26.498Z,52.09
2018-06-24T03:51:54.778Z,51.92
2018-06-24T03:54:23.241Z,51.80
2018-06-24T03:56:51.824Z,50.16
2018-06-24T03:59:20.301Z,49.98
2018-06-24T04:01:48.693Z,48.86
2018-06-24T04:04:17.090Z,49.55
2018-06-24T04:06:45.614Z,49.33
2018-06-24T04:09:14.206Z,49.21
2018-06-24T04:11:42.802Z,49.49
2018-06-24T04:14:11.231Z,49.61
2018-06-24T04:16:39.684Z,49.67
2018-06-24T04:19:08.186Z,49.50
2018-06-24T04:21:36.448Z,49.91
2018-06-24T04:24:04.918Z,49.57
2018-06-24T04:26:33.282Z,49.46
2018-06-24T04:29:01.577Z,49.44
2018-06-24T04:31:30.157Z,48.18
2018-06-24T04:33:58.737Z,48.42
2018-06-24T04:36:27.010Z,49.04
2018-06-24T04:38:55.612Z,49.55
2018-06-24T04:41:23.983Z,49.15
2018-06-24T04:43:53.061Z,49.57
2018-06-24T04:46:21.641Z,50.09
2018-06-24T04:48:50.241Z,50.50
2018-06-24T04:51:18.530Z,49.99
2018-06-24T04:53:46.925Z,50.13
2018-06-24T04:56:15.245Z,50.16
2018-06-24T04:58:43.558Z,49.47
2018-06-24T05:01:11.933Z,50.60
2018-06-24T05:03:40.314Z,50.12
2018-06-24T05:06:08.500Z,50.40
2018-06-24T05:08:37.002Z,49.76
2018-06-24T05:11:06.485Z,49.57
2018-06-24T05:13:35.134Z,49.58
2018-06-24T05:16:03.327Z,49.84
2018-06-24T05:18:31.384Z,50.87
2018-06-24T05:20:59.337Z,51.00
2018-06-24T05:23:27.270Z,50.56
2018-06-24T05:25:55.409Z,50.18
2018-06-24T05:28:23.697Z,50.32
2018-06-24T05:30:52.129Z,50.33
2018-06-24T05:33:20.201Z,49.67
2018-06-24T05:35:48.517Z,49.89
2018-06-24T05:38:17.017Z,49.71
2018-06-24T05:40:45.609Z,50.13
2018-06-24T05:43:13.963Z,50.42
2018-06-24T05:45:42.028Z,50.79
2018-06-24T05:48:10.418Z,50.38
2018-06-24T05:50:38.905Z,50.77
2018-06-24T05:53:07.204Z,51.68
2018-06-24T05:55:36.193Z,52.03
2018-06-24T05:58:04.862Z,50.91
2018-06-24T06:00:33.244Z,50.58
2018-06-24T06:03:01.827Z,50.83
2018-06-24T06:05:30.301Z,51.46
2018-06-24T06:07:58.785Z,50.62
2018-06-24T06:10:26.996Z,50.65
2018-06-24T06:12:55.572Z,50.33
2018-06-24T06:15:24.017Z,49.99
2018-06-24T06:17:52.321Z,50.22
2018-06-24T06:20:20.843Z,49.62
2018-06-24T06:22:49.380Z,50.27
2018-06-24T06:25:17.841Z,50.94
2018-06-24T06:27:46.117Z,50.79
2018-06-24T06:30:14.508Z,47.28
2018-06-24T06:32:45.748Z,45.22
2018-06-24T06:35:14.130Z,45.02
2018-06-24T06:37:42.708Z,45.54
2018-06-24T06:40:11.290Z,45.29
2018-06-24T06:42:39.691Z,45.35
2018-06-24T06:45:08.216Z,44.55
2018-06-24T06:47:36.691Z,43.66
2018-06-24T06:50:05.843Z,46.20
2018-06-24T06:52:34.217Z,43.19
2018-06-24T06:55:02.489Z,44.26
2018-06-24T06:57:31.114Z,44.20
2018-06-24T06:59:59.454Z,42.25
2018-06-24T07:02:28.074Z,42.59
2018-06-24T07:04:56.671Z,42.60
2018-06-24T07:07:25.001Z,42.87
2018-06-24T07:09:53.260Z,41.57
2018-06-24T07:12:21.762Z,41.24
2018-06-24T07:14:49.926Z,46.02
2018-06-24T07:17:19.429Z,42.33
2018-06-24T07:19:48.646Z,42.15
2018-06-24T07:22:17.016Z,42.41
2018-06-24T07:24:45.287Z,42.21
2018-06-24T07:27:17.988Z,41.69
2018-06-24T07:29:51.858Z,42.04
2018-06-24T07:32:20.057Z,43.17
2018-06-24T07:34:48.563Z,43.84
2018-06-24T07:37:16.816Z,43.34
2018-06-24T07:39:45.172Z,43.56
2018-06-24T07:42:13.468Z,43.60
2018-06-24T07:44:41.921Z,44.01
2018-06-24T07:47:10.151Z,43.92
2018-06-24T07:49:38.618Z,44.71
2018-06-24T07:52:06.885Z,45.33
2018-06-24T07:54:35.357Z,44.88
2018-06-24T07:57:03.842Z,45.49
2018-06-24T07:59:32.155Z,44.17
2018-06-24T08:02:00.714Z,44.54
2018-06-24T08:04:29.038Z,45.07
2018-06-24T08:06:57.541Z,43.82
2018-06-24T08:09:26.153Z,44.25
2018-06-24T08:11:54.629Z,43.92
2018-06-24T08:14:23.319Z,43.96
2018-06-24T08:16:51.807Z,44.61
2018-06-24T08:19:20.181Z,45.12
2018-06-24T08:21:48.674Z,45.35
2018-06-24T08:24:16.992Z,45.64
2018-06-24T08:26:45.423Z,44.91
2018-06-24T08:29:13.801Z,44.78
2018-06-24T08:31:42.267Z,44.32
2018-06-24T08:34:10.797Z,44.10
2018-06-24T08:36:39.354Z,43.44
2018-06-24T08:39:09.114Z,43.90
2018-06-24T08:41:37.671Z,42.45
2018-06-24T08:44:07.219Z,41.89
2018-06-24T08:46:35.886Z,42.38
2018-06-24T08:49:04.625Z,41.30
2018-06-24T08:51:33.203Z,42.28
2018-06-24T08:54:02.446Z,41.22
2018-06-24T08:56:30.994Z,41.80
2018-06-24T08:58:59.485Z,42.74
2018-06-24T09:01:27.959Z,42.58
2018-06-24T09:03:56.334Z,42.89
2018-06-24T09:06:24.811Z,43.03
2018-06-24T09:08:53.199Z,44.52
2018-06-24T09:11:21.574Z,42.81
2018-06-24T09:13:50.046Z,43.28
2018-06-24T09:16:18.430Z,42.57
2018-06-24T09:18:46.954Z,41.72
2018-06-24T09:21:15.407Z,41.80
2018-06-24T09:23:43.870Z,41.17
2018-06-24T09:26:12.514Z,40.59
2018-06-24T09:28:40.842Z,39.73
2018-06-24T09:31:09.831Z,40.53
2018-06-24T09:33:39.439Z,39.71
2018-06-24T09:36:08.162Z,38.61
2018-06-24T09:38:36.594Z,39.73
2018-06-24T09:41:05.317Z,39.25
2018-06-24T09:43:33.704Z,38.03
2018-06-24T09:46:02.565Z,37.84
2018-06-24T09:48:31.312Z,38.43
2018-06-24T09:51:00.065Z,41.41
2018-06-24T09:53:29.274Z,40.00
2018-06-24T09:55:57.755Z,37.45
2018-06-24T09:58:26.205Z,36.02
2018-06-24T10:00:54.712Z,36.05
2018-06-24T10:03:24.219Z,36.41
2018-06-24T10:05:52.850Z,37.90
2018-06-24T10:08:21.153Z,36.12
2018-06-24T10:10:50.205Z,38.73
2018-06-24T10:13:18.842Z,38.85
2018-06-24T10:15:47.314Z,36.80
2018-06-24T10:18:15.738Z,36.03
2018-06-24T10:20:44.382Z,36.87
2018-06-24T10:23:12.965Z,34.43
2018-06-24T10:25:41.349Z,35.97
2018-06-24T10:28:09.720Z,37.11
2018-06-24T10:30:38.337Z,34.47
2018-06-24T10:33:07.514Z,38.45
2018-06-24T10:35:35.974Z,34.28
2018-06-24T10:38:04.678Z,35.43
2018-06-24T10:40:33.290Z,36.96
2018-06-24T10:43:01.788Z,37.97
2018-06-24T10:45:30.358Z,35.23
2018-06-24T10:47:58.810Z,32.62
2018-06-24T10:50:27.207Z,34.46
2018-06-24T10:52:55.743Z,34.71
2018-06-24T10:55:24.394Z,38.77
2018-06-24T10:57:52.737Z,33.46
2018-06-24T11:00:21.337Z,38.39
2018-06-24T11:02:49.907Z,35.53
2018-06-24T11:05:18.377Z,35.87
2018-06-24T11:07:46.895Z,33.72
2018-06-24T11:10:15.728Z,34.53
2018-06-24T11:12:44.133Z,38.82
2018-06-24T11:15:12.755Z,34.68
2018-06-24T11:17:41.290Z,34.90
2018-06-24T11:20:09.777Z,36.13
2018-06-24T11:22:38.225Z,34.72
2018-06-24T11:25:06.857Z,35.76
2018-06-24T11:27:35.221Z,34.38
2018-06-24T11:30:03.865Z,35.64
2018-06-24T11:32:32.381Z,37.57
2018-06-24T11:35:01.030Z,34.19
2018-06-24T11:37:29.512Z,39.07
2018-06-24T11:39:58.066Z,36.57
2018-06-24T11:42:26.308Z,36.43
2018-06-24T11:44:54.946Z,33.58
2018-06-24T11:47:23.572Z,33.15
2018-06-24T11:49:51.974Z,33.40
2018-06-24T11:52:20.601Z,36.44
2018-06-24T11:54:49.261Z,37.04
2018-06-24T11:57:17.598Z,34.88
2018-06-24T11:59:46.321Z,33.73
2018-06-24T12:02:14.717Z,34.01
2018-06-24T12:04:43.040Z,32.70
2018-06-24T12:07:11.416Z,35.68
2018-06-24T12:09:39.851Z,34.11
2018-06-24T12:12:08.491Z,33.92
2018-06-24T12:14:37.897Z,34.14
2018-06-24T12:17:06.338Z,34.63
2018-06-24T12:19:34.779Z,34.24
2018-06-24T12:22:03.188Z,33.38
2018-06-24T12:24:31.670Z,34.10
2018-06-24T12:27:00.303Z,33.51
2018-06-24T12:29:28.809Z,33.13
2018-06-24T12:31:57.506Z,33.28
2018-06-24T12:34:26.782Z,40.05
2018-06-24T12:36:55.248Z,33.33
2018-06-24T12:39:23.651Z,33.15
2018-06-24T12:41:52.965Z,33.66
2018-06-24T12:44:21.404Z,35.94
2018-06-24T12:46:49.938Z,40.94
2018-06-24T12:49:18.482Z,33.51
2018-06-24T12:51:46.926Z,32.41
2018-06-24T12:54:15.450Z,33.67
2018-06-24T12:56:43.943Z,37.43
2018-06-24T12:59:12.744Z,33.20
2018-06-24T13:01:40.997Z,34.12
2018-06-24T13:04:09.651Z,33.62
2018-06-24T13:06:37.998Z,39.85
2018-06-24T13:09:08.184Z,32.86
2018-06-24T13:11:36.724Z,33.27
2018-06-24T13:14:05.284Z,34.23
2018-06-24T13:16:33.630Z,41.16
2018-06-24T13:19:02.249Z,33.74
2018-06-24T13:21:30.697Z,33.97
2018-06-24T13:23:59.205Z,35.21
2018-06-24T13:26:28.739Z,34.53
2018-06-24T13:28:57.268Z,36.52
2018-06-24T13:31:25.742Z,37.07
2018-06-24T13:33:54.475Z,36.01
2018-06-24T13:36:22.853Z,40.72
2018-06-24T13:38:51.345Z,34.09
2018-06-24T13:41:19.923Z,34.36
2018-06-24T13:43:48.450Z,33.81
2018-06-24T13:46:16.930Z,34.37
2018-06-24T13:48:45.554Z,34.62
2018-06-24T13:51:14.036Z,33.73
2018-06-24T13:53:42.581Z,35.17
2018-06-24T13:56:11.228Z,34.70
2018-06-24T13:58:40.790Z,34.81
2018-06-24T14:01:09.266Z,36.03
2018-06-24T14:03:37.700Z,37.58
2018-06-24T14:06:06.148Z,34.53
2018-06-24T14:08:34.872Z,34.37
2018-06-24T14:11:03.237Z,34.06
2018-06-24T14:13:31.783Z,37.58
2018-06-24T14:16:00.324Z,34.87
2018-06-24T14:18:29.026Z,34.95
2018-06-24T14:20:57.562Z,36.04
2018-06-24T14:23:25.996Z,37.04
2018-06-24T14:25:54.528Z,37.71
2018-06-24T14:28:23.179Z,37.75
2018-06-24T14:30:52.682Z,37.64
2018-06-24T14:33:21.341Z,41.44
2018-06-24T14:35:52.482Z,40.88
2018-06-24T14:38:20.841Z,38.06
2018-06-24T14:40:49.128Z,38.44
2018-06-24T14:43:17.654Z,40.36
2018-06-24T14:45:46.363Z,38.86
2018-06-24T14:48:14.822Z,38.83
2018-06-24T14:50:43.774Z,39.63
2018-06-24T14:53:12.338Z,39.41
2018-06-24T14:55:40.891Z,39.26
2018-06-24T14:58:09.652Z,40.03
2018-06-24T15:00:41.172Z,39.23
2018-06-24T15:03:09.593Z,39.42
2018-06-24T15:05:38.179Z,39.90
2018-06-24T15:08:06.826Z,40.38
2018-06-24T15:10:35.270Z,40.19
2018-06-24T15:13:03.934Z,41.23
2018-06-24T15:15:33.058Z,39.92
2018-06-24T15:18:01.393Z,39.01
2018-06-24T15:20:29.898Z,41.54
2018-06-24T15:22:58.338Z,38.17
2018-06-24T15:25:26.849Z,39.02
2018-06-24T15:27:55.746Z,40.29
2018-06-24T15:30:24.182Z,39.47
2018-06-24T15:32:52.693Z,39.39
2018-06-24T15:35:20.978Z,39.14
2018-06-24T15:37:49.522Z,39.70
2018-06-24T15:40:17.976Z,39.41
2018-06-24T15:42:46.624Z,39.98
2018-06-24T15:45:15.205Z,43.94
2018-06-24T15:47:43.644Z,40.28
2018-06-24T15:50:12.288Z,40.40
2018-06-24T15:52:40.877Z,40.42
2018-06-24T15:55:09.312Z,40.28
2018-06-24T15:57:37.818Z,40.84
2018-06-24T16:00:06.500Z,40.00
2018-06-24T16:02:34.925Z,40.27
2018-06-24T16:05:03.366Z,40.19
2018-06-24T16:07:31.763Z,42.04
2018-06-24T16:10:00.387Z,44.40
2018-06-24T16:12:28.622Z,45.01
2018-06-24T16:14:57.085Z,39.66
2018-06-24T16:17:25.504Z,39.47
2018-06-24T16:19:54.046Z,40.86
2018-06-24T16:22:22.539Z,39.92
2018-06-24T16:24:51.484Z,39.82
2018-06-24T16:27:19.897Z,44.46
2018-06-24T16:29:48.406Z,40.28
2018-06-24T16:32:16.804Z,40.86
2018-06-24T16:34:45.456Z,40.29
2018-06-24T16:37:13.650Z,40.81
2018-06-24T16:39:41.717Z,41.12
2018-06-24T16:42:09.743Z,41.33
2018-06-24T16:44:37.685Z,41.47
2018-06-24T16:47:06.066Z,41.19
2018-06-24T16:49:34.606Z,41.82
2018-06-24T16:52:02.881Z,40.75
2018-06-24T16:54:31.313Z,41.08
2018-06-24T16:56:59.562Z,41.02
2018-06-24T16:59:34.118Z,41.09
2018-06-24T17:02:02.637Z,41.10
2018-06-24T17:04:30.978Z,41.53
2018-06-24T17:06:59.345Z,41.70
2018-06-24T17:09:27.909Z,41.86
2018-06-24T17:11:56.410Z,42.05
2018-06-24T17:14:24.888Z,44.87
2018-06-24T17:16:53.512Z,42.21
2018-06-24T17:19:21.963Z,42.56
2018-06-24T17:21:50.441Z,42.30
2018-06-24T17:24:19.077Z,46.21
2018-06-24T17:26:47.614Z,41.79
2018-06-24T17:29:15.994Z,42.28
2018-06-24T17:31:44.758Z,42.20
2018-06-24T17:34:13.160Z,42.77
2018-06-24T17:36:41.633Z,42.31
2018-06-24T17:39:11.350Z,42.94
2018-06-24T17:41:39.846Z,42.56
2018-06-24T17:44:08.514Z,43.52
2018-06-24T17:46:37.116Z,43.64
2018-06-24T17:49:05.569Z,43.25
2018-06-24T17:51:34.219Z,44.39
2018-06-24T17:54:02.802Z,43.24
2018-06-24T17:56:31.931Z,43.42
2018-06-24T17:59:00.518Z,43.73
2018-06-24T18:01:29.101Z,43.99
2018-06-24T18:03:57.524Z,45.07
2018-06-24T18:06:25.974Z,44.42
2018-06-24T18:08:54.629Z,44.85
2018-06-24T18:11:23.149Z,45.33
2018-06-24T18:13:51.552Z,45.81
2018-06-24T18:16:21.605Z,46.51
2018-06-24T18:18:50.037Z,46.56
2018-06-24T18:21:18.610Z,46.58
2018-06-24T18:23:47.202Z,46.68
2018-06-24T18:26:15.769Z,47.25
2018-06-24T18:28:44.190Z,47.93
2018-06-24T18:31:12.534Z,47.91
2018-06-24T18:33:41.017Z,48.87
2018-06-24T18:36:09.766Z,49.44
2018-06-24T18:38:38.280Z,50.03
2018-06-24T18:41:06.840Z,51.28
2018-06-24T18:43:35.342Z,51.67
2018-06-24T18:46:04.025Z,52.17
2018-06-24T18:48:32.485Z,52.50
2018-06-24T18:51:00.992Z,52.37
2018-06-24T18:53:29.599Z,52.72
2018-06-24T18:55:57.965Z,53.22
2018-06-24T18:58:26.339Z,54.05
2018-06-24T19:00:54.733Z,54.15
2018-06-24T19:03:23.332Z,53.83
2018-06-24T19:05:51.869Z,53.16
2018-06-24T19:08:20.624Z,53.05
2018-06-24T19:10:49.040Z,53.30
2018-06-24T19:13:17.422Z,53.23
2018-06-24T19:15:46.024Z,53.57
2018-06-24T19:18:14.491Z,53.50
2018-06-24T19:20:43.033Z,53.12
2018-06-24T19:23:12.237Z,53.07
2018-06-24T19:25:40.678Z,53.35
2018-06-24T19:28:09.032Z,53.97
2018-06-24T19:30:37.593Z,53.63
2018-06-24T19:33:05.912Z,54.07
2018-06-24T19:35:34.326Z,53.82
2018-06-24T19:38:02.770Z,54.07
2018-06-24T19:40:31.145Z,54.02
2018-06-24T19:42:59.868Z,53.80
2018-06-24T19:45:28.306Z,54.02
2018-06-24T19:47:56.690Z,53.44
2018-06-24T19:50:25.304Z,54.00
2018-06-24T19:52:53.860Z,54.21
2018-06-24T19:55:22.288Z,53.65
2018-06-24T19:57:50.765Z,54.29
2018-06-24T20:00:19.309Z,55.23
2018-06-24T20:02:47.980Z,56.05
2018-06-24T20:05:16.436Z,55.82
2018-06-24T20:07:45.058Z,55.74
2018-06-24T20:10:13.462Z,56.61
2018-06-24T20:12:42.133Z,57.00
2018-06-24T20:15:10.368Z,56.77
2018-06-24T20:17:38.981Z,57.68
2018-06-24T20:20:07.078Z,57.63
2018-06-24T20:22:35.684Z,57.07
2018-06-24T20:25:04.209Z,57.85
2018-06-24T20:27:32.607Z,57.99
2018-06-24T20:30:01.237Z,58.80
2018-06-24T20:32:29.662Z,58.68
2018-06-24T20:34:58.277Z,58.46
2018-06-24T20:37:27.102Z,59.15
2018-06-24T20:39:55.425Z,59.04
2018-06-24T20:42:23.892Z,59.24
2018-06-24T20:44:52.321Z,59.58
2018-06-24T20:47:20.761Z,59.49
2018-06-24T20:49:49.328Z,59.31
2018-06-24T20:52:17.833Z,59.84
2018-06-24T20:54:46.340Z,59.73
2018-06-24T20:57:14.905Z,58.84
2018-06-24T20:59:43.408Z,58.73
2018-06-24T21:02:11.945Z,59.13
2018-06-24T21:04:40.413Z,59.40
2018-06-24T21:07:08.900Z,60.09
2018-06-24T21:09:37.177Z,60.33
2018-06-24T21:12:05.704Z,60.09
2018-06-24T21:14:34.234Z,59.48
2018-06-24T21:17:02.842Z,59.99
2018-06-24T21:19:31.327Z,60.31
2018-06-24T21:21:59.732Z,61.06
2018-06-24T21:24:32.317Z,60.94
2018-06-24T21:27:00.949Z,60.78
2018-06-24T21:29:29.554Z,61.40
2018-06-24T21:31:57.916Z,60.75
2018-06-24T21:34:26.448Z,61.27
2018-06-24T21:36:55.410Z,62.01
2018-06-24T21:39:23.882Z,61.74
2018-06-24T21:41:52.395Z,61.71
2018-06-24T21:44:21.592Z,61.61
2018-06-24T21:46:50.395Z,61.17
2018-06-24T21:49:18.990Z,61.38
2018-06-24T21:51:47.500Z,61.79
2018-06-24T21:54:16.077Z,61.34
2018-06-24T21:56:44.536Z,61.89
2018-06-24T21:59:12.958Z,62.92
2018-06-24T22:01:41.459Z,62.65
2018-06-24T22:04:10.077Z,62.08
2018-06-24T22:06:38.576Z,62.56
2018-06-24T22:09:10.065Z,62.69
2018-06-24T22:11:38.344Z,62.14
2018-06-24T22:14:06.925Z,63.20
2018-06-24T22:16:35.470Z,62.62
2018-06-24T22:19:03.801Z,62.94
2018-06-24T22:21:33.044Z,63.71
2018-06-24T22:24:01.664Z,64.56
2018-06-24T22:26:30.157Z,65.02
2018-06-24T22:28:58.544Z,64.60
2018-06-24T22:31:27.153Z,64.69
2018-06-24T22:33:56.413Z,65.60
2018-06-24T22:36:25.163Z,64.68
2018-06-24T22:38:53.636Z,64.17
2018-06-24T22:41:22.019Z,63.97
2018-06-24T22:43:50.597Z,64.43
2018-06-24T22:46:18.970Z,64.50
2018-06-24T22:48:47.511Z,65.33
2018-06-24T22:51:15.793Z,65.08
2018-06-24T22:53:44.214Z,65.33
2018-06-24T22:56:12.646Z,65.29
2018-06-24T22:58:41.025Z,65.63
2018-06-24T23:01:09.654Z,65.65
2018-06-24T23:03:38.107Z,65.44
2018-06-24T23:06:06.714Z,66.36
2018-06-24T23:08:35.226Z,66.03
2018-06-24T23:11:03.678Z,67.11
2018-06-24T23:13:32.222Z,67.90
2018-06-24T23:16:00.718Z,66.03
2018-06-24T23:18:29.087Z,66.21
2018-06-24T23:20:57.494Z,65.90
2018-06-24T23:23:26.060Z,65.03
2018-06-24T23:25:54.683Z,64.31
2018-06-24T23:28:23.020Z,64.52
2018-06-24T23:30:51.497Z,64.92
2018-06-24T23:33:20.003Z,64.18
2018-06-24T23:35:48.556Z,65.84
2018-06-24T23:38:17.045Z,66.14
2018-06-24T23:40:45.525Z,66.53
2018-06-24T23:43:13.993Z,66.43
2018-06-24T23:45:42.181Z,66.49
2018-06-24T23:48:10.554Z,66.90
2018-06-24T23:50:39.153Z,66.62
2018-06-24T23:53:07.560Z,66.42
2018-06-24T23:55:36.649Z,67.19
2018-06-24T23:58:05.203Z,66.54
